Terminal Aerodrome Forecast
Issued by NWS

Home | Current Version | Previous Version | Text Only | Print | Product List | Glossary On
Versions: 1 2 3 4 5 6 7 8 9 10 11 12 13 14 15 16 17 18 19 20 21 22 23 24 25 26 27 28 29 30 31 32 33 34 35 36 37 38 39 40 41 42
000
FTAK31 PANC 011121
TAFAIL
TAF
PAIL 011121Z 0112/0212 09025G35KT P6SM VCSH SCT050 OVC120
     FM011500 09030G44KT 6SM -RA SCT025 OVC035 WS020/13060KT
     FM011800 09030G44KT 6SM -RA BKN025 OVC035 WS020/13060KT
     FM020500 09018G28KT 6SM -RA SCT025 OVC035 WS020/13050KT
     FM021000 10009KT P6SM -RA SCT025 BKN035=

USA.gov is the U.S. government's official web portal to all federal, state and local government web resources and services.